Time;durP1;ratioP1;P1;durP2;ratioP2;P2;SDS_P1;SDS_P2;PMS_P1;PMS_P2;Temp;Humidity;BMP_temperature;BMP_pressure;BME280_temperature;BME280_humidity;BME280_pressure;Samples;Min_cycle;Max_cycle;Signal;HPM_P1;HPM_P2
2023/04/22 00:02:23;;;;;;;;;;;19.40;45.10;;;;;;5001202;28;19971;-53
2023/04/22 00:04:49;;;;;;;;;;;19.50;45.20;;;;;;5007363;28;19972;-53
2023/04/22 00:07:14;;;;;;;;;;;19.40;45.10;;;;;;4997571;28;19918;-54
2023/04/22 00:09:40;;;;;;;;;;;19.40;45.10;;;;;;4996774;28;19917;-54
2023/04/22 00:12:06;;;;;;;;;;;19.40;45.10;;;;;;5001902;28;19918;-53
2023/04/22 00:14:31;;;;;;;;;;;19.40;45.00;;;;;;5012281;28;19925;-53
2023/04/22 00:16:57;;;;;;;;;;;19.40;45.00;;;;;;5006638;28;19920;-53
2023/04/22 00:19:22;;;;;;;;;;;19.40;45.00;;;;;;5008302;28;19918;-54
2023/04/22 00:21:48;;;;;;;;;;;19.40;44.90;;;;;;4994975;28;19917;-54
2023/04/22 00:24:13;;;;;;;;;;;19.40;44.80;;;;;;4993311;28;19920;-53
2023/04/22 00:26:38;;;;;;;;;;;19.40;44.80;;;;;;4994900;28;20294;-53
2023/04/22 00:29:04;;;;;;;;;;;19.30;44.80;;;;;;4994160;28;20329;-54
2023/04/22 00:31:29;;;;;;;;;;;19.30;44.90;;;;;;5003317;28;19929;-54
2023/04/22 00:33:55;;;;;;;;;;;19.40;44.90;;;;;;5005828;28;19917;-54
2023/04/22 00:36:20;;;;;;;;;;;19.40;44.70;;;;;;4995207;28;19909;-53
2023/04/22 00:38:50;;;;;;;;;;;19.30;44.80;;;;;;5011792;28;19914;-54
2023/04/22 00:41:15;;;;;;;;;;;19.30;44.60;;;;;;4993107;28;19948;-54
2023/04/22 00:43:41;;;;;;;;;;;19.30;44.80;;;;;;4987070;28;19914;-53
2023/04/22 00:46:06;;;;;;;;;;;19.30;44.80;;;;;;4994396;28;20016;-53
2023/04/22 00:48:32;;;;;;;;;;;19.30;44.80;;;;;;5017564;28;19920;-53
2023/04/22 00:50:57;;;;;;;;;;;19.30;44.80;;;;;;4990679;28;19914;-53
2023/04/22 00:53:23;;;;;;;;;;;19.40;44.80;;;;;;4996402;28;19921;-54
2023/04/22 00:55:48;;;;;;;;;;;19.30;44.70;;;;;;5006212;28;19972;-53
2023/04/22 00:58:14;;;;;;;;;;;19.30;44.70;;;;;;4999899;28;19917;-54
2023/04/22 01:00:39;;;;;;;;;;;19.30;44.70;;;;;;5011763;28;19924;-53
2023/04/22 01:03:06;;;;;;;;;;;19.30;44.70;;;;;;4986894;28;20301;-54
2023/04/22 01:05:31;;;;;;;;;;;19.30;44.70;;;;;;5000263;28;19917;-53
2023/04/22 01:07:56;;;;;;;;;;;19.30;44.70;;;;;;4998182;28;19940;-53
2023/04/22 01:10:22;;;;;;;;;;;19.20;44.60;;;;;;5036091;28;19918;-54
2023/04/22 01:12:47;;;;;;;;;;;19.20;44.70;;;;;;5010274;28;19928;-53
2023/04/22 01:15:13;;;;;;;;;;;19.30;44.70;;;;;;4976057;28;19914;-54
2023/04/22 01:17:38;;;;;;;;;;;19.30;44.40;;;;;;4997305;28;20398;-53
2023/04/22 01:20:04;;;;;;;;;;;19.30;44.30;;;;;;4987865;28;19950;-53
2023/04/22 01:22:34;;;;;;;;;;;19.30;44.40;;;;;;4992166;28;20305;-53
2023/04/22 01:24:59;;;;;;;;;;;19.30;43.90;;;;;;5006006;28;19914;-53
2023/04/22 01:27:25;;;;;;;;;;;19.30;43.90;;;;;;4997417;28;19913;-53
2023/04/22 01:29:51;;;;;;;;;;;19.40;43.90;;;;;;4993231;28;19914;-53
2023/04/22 01:32:16;;;;;;;;;;;19.40;43.90;;;;;;4997409;28;19921;-53
2023/04/22 01:34:42;;;;;;;;;;;19.50;43.80;;;;;;4992050;28;19914;-53
2023/04/22 01:37:07;;;;;;;;;;;19.60;43.90;;;;;;5005115;28;19999;-52
2023/04/22 01:39:33;;;;;;;;;;;19.60;44.00;;;;;;4999929;28;19936;-53
2023/04/22 01:41:58;;;;;;;;;;;19.60;43.50;;;;;;4984350;28;20390;-53
2023/04/22 01:44:24;;;;;;;;;;;19.60;43.40;;;;;;4989620;28;20305;-54
2023/04/22 01:46:49;;;;;;;;;;;19.60;43.50;;;;;;4986448;28;20001;-54
2023/04/22 01:49:15;;;;;;;;;;;19.60;43.50;;;;;;4988922;28;19914;-54
2023/04/22 01:51:40;;;;;;;;;;;19.70;43.30;;;;;;4981524;28;19953;-53
2023/04/22 01:54:06;;;;;;;;;;;19.70;43.30;;;;;;4992023;28;19914;-53
2023/04/22 01:56:31;;;;;;;;;;;19.70;43.20;;;;;;5004621;28;19952;-53
2023/04/22 01:58:57;;;;;;;;;;;19.70;43.20;;;;;;5007971;28;20437;-54
2023/04/22 02:01:22;;;;;;;;;;;19.70;43.10;;;;;;5007454;28;19921;-53
2023/04/22 02:03:48;;;;;;;;;;;19.70;42.90;;;;;;5003295;28;19921;-53
2023/04/22 02:06:13;;;;;;;;;;;19.80;43.00;;;;;;4992016;28;20437;-53
2023/04/22 02:08:39;;;;;;;;;;;19.80;42.90;;;;;;4983804;28;20293;-53
2023/04/22 02:11:04;;;;;;;;;;;19.80;42.90;;;;;;4983564;28;19965;-54
2023/04/22 02:13:39;;;;;;;;;;;19.80;43.10;;;;;;5006048;28;19917;-53
2023/04/22 02:16:04;;;;;;;;;;;19.80;42.90;;;;;;5000551;28;19913;-53
2023/04/22 02:18:30;;;;;;;;;;;19.80;42.80;;;;;;5012046;28;19916;-53
2023/04/22 02:20:55;;;;;;;;;;;19.80;42.90;;;;;;4988794;28;19914;-53
2023/04/22 02:23:21;;;;;;;;;;;19.80;42.70;;;;;;4984562;28;19920;-53
2023/04/22 02:25:49;;;;;;;;;;;19.80;42.60;;;;;;4990213;28;19918;-53
2023/04/22 02:28:15;;;;;;;;;;;19.80;42.60;;;;;;4986795;28;20378;-53
2023/04/22 02:30:40;;;;;;;;;;;19.80;42.70;;;;;;4988352;28;19920;-53
2023/04/22 02:33:06;;;;;;;;;;;19.80;43.00;;;;;;4995197;28;19917;-53
2023/04/22 02:35:31;;;;;;;;;;;19.80;42.80;;;;;;4997867;28;19914;-53
2023/04/22 02:37:57;;;;;;;;;;;19.80;43.00;;;;;;5033465;28;19914;-53
2023/04/22 02:40:22;;;;;;;;;;;19.70;42.80;;;;;;4995141;28;19976;-53
2023/04/22 02:42:48;;;;;;;;;;;19.70;43.10;;;;;;4991689;28;20009;-54
2023/04/22 02:45:13;;;;;;;;;;;19.70;42.60;;;;;;4978108;28;20298;-54
2023/04/22 02:47:39;;;;;;;;;;;19.70;42.80;;;;;;4996087;28;20357;-53
2023/04/22 02:50:05;;;;;;;;;;;19.70;42.90;;;;;;5011911;28;19914;-53
2023/04/22 02:52:32;;;;;;;;;;;19.60;42.80;;;;;;5004640;28;19988;-54
2023/04/22 02:54:57;;;;;;;;;;;19.60;42.90;;;;;;4994887;28;19961;-54
2023/04/22 02:57:22;;;;;;;;;;;19.60;42.80;;;;;;4995202;28;19926;-53
2023/04/22 02:59:48;;;;;;;;;;;19.60;43.10;;;;;;4993077;28;19957;-54
2023/04/22 03:02:13;;;;;;;;;;;19.50;42.90;;;;;;4995336;28;19918;-53
2023/04/22 03:04:39;;;;;;;;;;;19.50;43.00;;;;;;5012051;28;20432;-54
2023/04/22 03:07:05;;;;;;;;;;;19.40;42.90;;;;;;4984499;28;20429;-54
2023/04/22 03:09:30;;;;;;;;;;;19.40;43.00;;;;;;5004316;28;19937;-53
2023/04/22 03:11:56;;;;;;;;;;;19.40;43.20;;;;;;5010869;28;20000;-54
2023/04/22 03:14:21;;;;;;;;;;;19.40;43.00;;;;;;5007897;28;19914;-54
2023/04/22 03:16:47;;;;;;;;;;;19.40;43.10;;;;;;5002727;28;19980;-53
2023/04/22 03:19:12;;;;;;;;;;;19.40;43.10;;;;;;4995502;28;20068;-53
2023/04/22 03:21:37;;;;;;;;;;;19.40;43.20;;;;;;5005462;28;19918;-53
2023/04/22 03:24:03;;;;;;;;;;;19.40;43.10;;;;;;5008983;28;19928;-54
2023/04/22 03:26:28;;;;;;;;;;;19.40;42.90;;;;;;5001638;28;19920;-53
2023/04/22 03:28:54;;;;;;;;;;;19.40;42.90;;;;;;5007556;28;19913;-53
2023/04/22 03:31:19;;;;;;;;;;;19.30;42.80;;;;;;4993843;28;20060;-53
2023/04/22 03:33:45;;;;;;;;;;;19.30;43.00;;;;;;5009404;28;19917;-53
2023/04/22 03:36:10;;;;;;;;;;;19.30;42.90;;;;;;5015162;28;19909;-53
2023/04/22 03:38:36;;;;;;;;;;;19.40;42.90;;;;;;5010209;28;20328;-53
2023/04/22 03:41:01;;;;;;;;;;;19.30;42.70;;;;;;4987324;28;20303;-53
2023/04/22 03:43:27;;;;;;;;;;;19.30;42.80;;;;;;4998944;28;20293;-53
2023/04/22 03:45:52;;;;;;;;;;;19.30;42.90;;;;;;5006293;28;19953;-53
2023/04/22 03:48:18;;;;;;;;;;;19.30;42.70;;;;;;4993562;28;19921;-53
2023/04/22 03:50:43;;;;;;;;;;;19.30;42.80;;;;;;4982411;28;19973;-53
2023/04/22 03:53:08;;;;;;;;;;;19.30;42.80;;;;;;4988064;28;19929;-53
2023/04/22 03:55:34;;;;;;;;;;;19.30;42.70;;;;;;4997751;28;19910;-54
2023/04/22 03:58:00;;;;;;;;;;;19.30;42.70;;;;;;4990972;28;19914;-53
2023/04/22 04:00:25;;;;;;;;;;;19.30;42.70;;;;;;5002652;28;20382;-53
2023/04/22 04:02:51;;;;;;;;;;;19.30;42.60;;;;;;4994027;28;19917;-53
2023/04/22 04:05:16;;;;;;;;;;;19.30;42.70;;;;;;4994158;28;20382;-53
2023/04/22 04:07:42;;;;;;;;;;;19.30;42.60;;;;;;4992082;28;19945;-54
2023/04/22 04:10:08;;;;;;;;;;;19.30;42.70;;;;;;5014454;28;19937;-53
2023/04/22 04:12:33;;;;;;;;;;;19.30;42.50;;;;;;4995383;28;19921;-53
2023/04/22 04:14:59;;;;;;;;;;;19.30;42.50;;;;;;5000923;28;19936;-53
2023/04/22 04:17:24;;;;;;;;;;;19.20;42.50;;;;;;4992620;28;19992;-54
2023/04/22 04:19:50;;;;;;;;;;;19.30;42.60;;;;;;5004604;28;19914;-53
2023/04/22 04:22:17;;;;;;;;;;;19.30;42.50;;;;;;5005001;28;19913;-53
2023/04/22 04:24:42;;;;;;;;;;;19.20;42.40;;;;;;4991992;28;20401;-53
2023/04/22 04:27:08;;;;;;;;;;;19.20;42.40;;;;;;5008015;28;19917;-53
2023/04/22 04:29:34;;;;;;;;;;;19.30;42.40;;;;;;4992183;28;19925;-53
2023/04/22 04:32:00;;;;;;;;;;;19.30;42.40;;;;;;4998283;28;19921;-53
2023/04/22 04:34:25;;;;;;;;;;;19.30;42.40;;;;;;4994086;28;20375;-53
2023/04/22 04:36:51;;;;;;;;;;;19.30;42.20;;;;;;5004198;28;19914;-53
2023/04/22 04:39:16;;;;;;;;;;;19.30;42.20;;;;;;5005622;28;19921;-54
2023/04/22 04:41:42;;;;;;;;;;;19.30;42.10;;;;;;5011894;28;19920;-53
2023/04/22 04:44:09;;;;;;;;;;;19.40;42.20;;;;;;5008144;28;19917;-53
2023/04/22 04:46:36;;;;;;;;;;;19.30;42.20;;;;;;4990506;28;20444;-53
2023/04/22 04:49:03;;;;;;;;;;;19.30;42.20;;;;;;4998631;28;19925;-54
2023/04/22 04:51:28;;;;;;;;;;;19.30;42.20;;;;;;4982290;28;20372;-54
2023/04/22 04:53:53;;;;;;;;;;;19.30;42.20;;;;;;5021373;28;20008;-53
2023/04/22 04:56:19;;;;;;;;;;;19.30;42.20;;;;;;4993838;28;19913;-54
2023/04/22 04:58:45;;;;;;;;;;;19.30;42.10;;;;;;4998103;28;19921;-53
2023/04/22 05:01:10;;;;;;;;;;;19.30;42.10;;;;;;4991517;28;20318;-54
2023/04/22 05:03:35;;;;;;;;;;;19.30;42.20;;;;;;4987375;28;19944;-53
2023/04/22 05:06:02;;;;;;;;;;;19.30;42.10;;;;;;4992632;28;20039;-53
2023/04/22 05:08:28;;;;;;;;;;;19.30;42.20;;;;;;4988594;28;20290;-53
2023/04/22 05:10:53;;;;;;;;;;;19.20;42.10;;;;;;5000856;28;19918;-54
2023/04/22 05:13:18;;;;;;;;;;;19.20;42.10;;;;;;4992992;28;20603;-53
2023/04/22 05:15:44;;;;;;;;;;;19.30;42.20;;;;;;4997860;28;19914;-54
2023/04/22 05:18:09;;;;;;;;;;;19.30;42.20;;;;;;4999692;28;20007;-54
2023/04/22 05:20:35;;;;;;;;;;;19.30;42.20;;;;;;4999178;28;20405;-53
2023/04/22 05:23:00;;;;;;;;;;;19.20;42.20;;;;;;4995249;28;20271;-53
2023/04/22 05:25:26;;;;;;;;;;;19.30;42.30;;;;;;4994072;28;19910;-54
2023/04/22 05:27:51;;;;;;;;;;;19.20;42.10;;;;;;4988376;28;21527;-53
2023/04/22 05:30:17;;;;;;;;;;;19.30;42.20;;;;;;4987506;28;20001;-53
2023/04/22 05:32:42;;;;;;;;;;;19.30;42.40;;;;;;4999455;28;20374;-54
2023/04/22 05:35:08;;;;;;;;;;;19.20;42.20;;;;;;5000843;28;19936;-53
2023/04/22 05:37:34;;;;;;;;;;;19.20;42.20;;;;;;5010915;28;19949;-53
2023/04/22 05:40:00;;;;;;;;;;;19.20;42.20;;;;;;5001639;28;20338;-54
2023/04/22 05:42:25;;;;;;;;;;;19.20;42.40;;;;;;5002311;28;19914;-53
2023/04/22 05:44:51;;;;;;;;;;;19.20;42.20;;;;;;5010021;28;20374;-53
2023/04/22 05:47:16;;;;;;;;;;;19.20;42.20;;;;;;5001040;28;20297;-54
2023/04/22 05:49:42;;;;;;;;;;;19.20;42.20;;;;;;5008290;28;19914;-53
2023/04/22 05:52:07;;;;;;;;;;;19.20;43.00;;;;;;4989273;28;19928;-53
2023/04/22 05:54:32;;;;;;;;;;;19.20;42.30;;;;;;4990222;28;20322;-53
2023/04/22 05:56:58;;;;;;;;;;;19.20;42.40;;;;;;4998262;28;19980;-54
2023/04/22 05:59:23;;;;;;;;;;;19.20;42.30;;;;;;4991754;28;20314;-53
2023/04/22 06:01:49;;;;;;;;;;;19.20;42.30;;;;;;4990604;28;20012;-53
2023/04/22 06:04:14;;;;;;;;;;;19.20;42.40;;;;;;5002165;28;20392;-54
2023/04/22 06:06:40;;;;;;;;;;;19.20;42.40;;;;;;5011443;28;19917;-53
2023/04/22 06:09:06;;;;;;;;;;;19.20;42.50;;;;;;5010329;28;19913;-53
2023/04/22 06:11:32;;;;;;;;;;;19.20;42.30;;;;;;5012007;28;20000;-53
2023/04/22 06:13:57;;;;;;;;;;;19.20;42.30;;;;;;4992732;28;20425;-54
2023/04/22 06:16:22;;;;;;;;;;;19.10;42.60;;;;;;5006473;28;19972;-53
2023/04/22 06:18:48;;;;;;;;;;;19.20;42.50;;;;;;5010668;28;19924;-53
2023/04/22 06:21:13;;;;;;;;;;;19.20;42.30;;;;;;5007363;28;20370;-53
2023/04/22 06:23:39;;;;;;;;;;;19.10;42.30;;;;;;4996732;28;19972;-53
2023/04/22 06:26:04;;;;;;;;;;;19.20;42.40;;;;;;4992884;28;20157;-53
2023/04/22 06:28:30;;;;;;;;;;;19.20;42.30;;;;;;4994263;28;19973;-53
2023/04/22 06:30:55;;;;;;;;;;;19.20;42.30;;;;;;4985627;28;20394;-53
2023/04/22 06:33:21;;;;;;;;;;;19.10;42.20;;;;;;4995090;28;19917;-53
2023/04/22 06:35:46;;;;;;;;;;;19.20;42.30;;;;;;5005379;28;19920;-54
2023/04/22 06:38:11;;;;;;;;;;;19.20;42.20;;;;;;5027305;28;20040;-53
2023/04/22 06:40:37;;;;;;;;;;;19.20;42.20;;;;;;4994594;28;19929;-53
2023/04/22 06:43:02;;;;;;;;;;;19.20;42.10;;;;;;4989776;28;19919;-54
2023/04/22 06:45:28;;;;;;;;;;;19.20;42.20;;;;;;4991978;28;19933;-53
2023/04/22 06:47:53;;;;;;;;;;;19.10;42.00;;;;;;4994256;28;20333;-54
2023/04/22 06:50:19;;;;;;;;;;;19.10;42.00;;;;;;5012115;28;20044;-54
2023/04/22 06:52:44;;;;;;;;;;;19.10;42.00;;;;;;5038079;28;19973;-53
2023/04/22 06:55:10;;;;;;;;;;;19.20;41.90;;;;;;4993275;28;20374;-53
2023/04/22 06:57:35;;;;;;;;;;;19.10;41.90;;;;;;4994644;28;19918;-54
2023/04/22 07:00:01;;;;;;;;;;;19.10;41.90;;;;;;4988158;28;19914;-54
2023/04/22 07:02:27;;;;;;;;;;;19.10;42.00;;;;;;4988981;28;19930;-53
2023/04/22 07:04:52;;;;;;;;;;;19.10;42.00;;;;;;4990161;28;20414;-53
2023/04/22 07:07:18;;;;;;;;;;;19.10;41.90;;;;;;4992002;28;20337;-53
2023/04/22 07:09:43;;;;;;;;;;;19.10;41.90;;;;;;5008098;28;20294;-54
2023/04/22 07:12:09;;;;;;;;;;;19.20;41.90;;;;;;4992063;28;19913;-53
2023/04/22 07:14:34;;;;;;;;;;;19.20;41.80;;;;;;4992313;28;19913;-53
2023/04/22 07:17:00;;;;;;;;;;;19.20;41.90;;;;;;4987377;28;19910;-53
2023/04/22 07:19:25;;;;;;;;;;;19.10;41.90;;;;;;4995790;28;20440;-54
2023/04/22 07:21:51;;;;;;;;;;;19.10;41.90;;;;;;4993953;28;19917;-53
2023/04/22 07:24:16;;;;;;;;;;;19.10;41.90;;;;;;5006453;28;19913;-53
2023/04/22 07:26:42;;;;;;;;;;;19.20;41.70;;;;;;5012656;28;19913;-54
2023/04/22 07:29:07;;;;;;;;;;;19.20;41.80;;;;;;5002013;28;20121;-53
2023/04/22 07:31:36;;;;;;;;;;;19.20;41.80;;;;;;5000884;28;19920;-54
2023/04/22 07:34:01;;;;;;;;;;;19.20;41.80;;;;;;5002939;28;20353;-54
2023/04/22 07:36:27;;;;;;;;;;;19.20;41.70;;;;;;4993626;28;19914;-53
2023/04/22 07:38:52;;;;;;;;;;;19.20;41.80;;;;;;5007444;28;20575;-53
2023/04/22 07:41:17;;;;;;;;;;;19.20;41.80;;;;;;5005212;28;19921;-53
2023/04/22 07:46:46;;;;;;;;;;;19.20;41.70;;;;;;5006973;28;19974;-52
2023/04/22 07:49:12;;;;;;;;;;;19.20;41.90;;;;;;5007445;28;19913;-54
2023/04/22 07:51:38;;;;;;;;;;;19.10;42.00;;;;;;4989720;28;19938;-54
2023/04/22 07:54:04;;;;;;;;;;;19.10;42.20;;;;;;4990690;28;19977;-53
2023/04/22 07:56:29;;;;;;;;;;;19.10;42.20;;;;;;4992631;28;19918;-53
2023/04/22 07:58:55;;;;;;;;;;;19.10;42.30;;;;;;4990081;28;20395;-54
2023/04/22 08:01:20;;;;;;;;;;;19.20;42.30;;;;;;4993915;28;19914;-53
2023/04/22 08:03:46;;;;;;;;;;;19.10;42.20;;;;;;4995778;28;19960;-53
2023/04/22 08:06:11;;;;;;;;;;;19.20;42.30;;;;;;4999710;28;19920;-54
2023/04/22 08:08:36;;;;;;;;;;;19.20;42.30;;;;;;5002235;28;19972;-53
2023/04/22 08:11:02;;;;;;;;;;;19.30;42.50;;;;;;4992727;28;20362;-53
2023/04/22 08:13:27;;;;;;;;;;;19.20;42.30;;;;;;4989023;28;20421;-53
2023/04/22 08:15:53;;;;;;;;;;;19.30;42.50;;;;;;4996376;28;20386;-53
2023/04/22 08:18:18;;;;;;;;;;;19.30;42.40;;;;;;4993107;28;20375;-54
2023/04/22 08:20:44;;;;;;;;;;;19.30;42.20;;;;;;4992893;28;20318;-53
2023/04/22 08:23:10;;;;;;;;;;;19.30;42.30;;;;;;4990597;28;19936;-54
2023/04/22 08:25:35;;;;;;;;;;;19.40;42.60;;;;;;4995457;28;20366;-54
2023/04/22 08:28:01;;;;;;;;;;;19.40;42.40;;;;;;4991163;28;19929;-54
2023/04/22 08:30:26;;;;;;;;;;;19.40;42.40;;;;;;4992490;28;20370;-55
2023/04/22 08:32:52;;;;;;;;;;;19.50;42.40;;;;;;4993136;28;20456;-54
2023/04/22 08:35:17;;;;;;;;;;;19.50;42.40;;;;;;4995287;28;20232;-53
2023/04/22 08:37:43;;;;;;;;;;;19.50;42.40;;;;;;4994355;28;19924;-54
2023/04/22 08:40:08;;;;;;;;;;;19.50;42.50;;;;;;4991547;28;20015;-53
2023/04/22 08:42:34;;;;;;;;;;;19.50;42.50;;;;;;4995297;28;19971;-54
2023/04/22 08:45:01;;;;;;;;;;;19.60;42.60;;;;;;4993299;28;19949;-53
2023/04/22 08:47:26;;;;;;;;;;;19.60;42.70;;;;;;4993789;28;19935;-53
2023/04/22 08:49:53;;;;;;;;;;;19.60;42.80;;;;;;5021067;28;19918;-52
2023/04/22 08:52:18;;;;;;;;;;;19.60;42.80;;;;;;4984880;28;19929;-54
2023/04/22 08:54:44;;;;;;;;;;;19.70;43.00;;;;;;4994037;28;20322;-53
2023/04/22 08:57:10;;;;;;;;;;;19.70;43.00;;;;;;5008523;28;19917;-53
2023/04/22 08:59:36;;;;;;;;;;;19.70;43.10;;;;;;5043819;28;20004;-53
2023/04/22 09:02:01;;;;;;;;;;;19.70;43.30;;;;;;4998338;28;20289;-53
2023/04/22 09:04:27;;;;;;;;;;;19.70;43.40;;;;;;4996092;28;19913;-52
2023/04/22 09:06:52;;;;;;;;;;;19.70;43.40;;;;;;4998899;28;20370;-53
2023/04/22 09:09:18;;;;;;;;;;;19.70;43.50;;;;;;4978633;28;20532;-53
2023/04/22 09:11:43;;;;;;;;;;;19.70;43.50;;;;;;4986090;28;20375;-53
2023/04/22 09:14:09;;;;;;;;;;;19.70;43.70;;;;;;4992653;28;19963;-52
2023/04/22 09:16:39;;;;;;;;;;;19.70;43.90;;;;;;5010804;28;19918;-52
2023/04/22 09:19:05;;;;;;;;;;;19.80;44.10;;;;;;5006266;28;19932;-52
2023/04/22 09:21:31;;;;;;;;;;;19.80;44.10;;;;;;5004378;28;19921;-52
2023/04/22 09:23:58;;;;;;;;;;;19.80;44.20;;;;;;4991877;28;19918;-52
2023/04/22 09:26:24;;;;;;;;;;;19.80;44.20;;;;;;5024050;28;19924;-52
2023/04/22 09:28:57;;;;;;;;;;;19.80;44.20;;;;;;4993071;28;19910;-52
2023/04/22 09:31:23;;;;;;;;;;;19.80;44.20;;;;;;4993909;28;19948;-52
2023/04/22 09:33:52;;;;;;;;;;;19.90;44.40;;;;;;5000644;28;20015;-52
2023/04/22 09:36:22;;;;;;;;;;;19.80;44.30;;;;;;5023992;28;19969;-52
2023/04/22 09:38:52;;;;;;;;;;;19.80;44.50;;;;;;4990791;28;19910;-52
2023/04/22 09:41:17;;;;;;;;;;;19.90;44.70;;;;;;4990302;28;20299;-52
2023/04/22 09:43:43;;;;;;;;;;;19.90;44.70;;;;;;4993072;28;19910;-52
2023/04/22 09:46:08;;;;;;;;;;;19.90;44.80;;;;;;4994777;28;20369;-52
2023/04/22 09:48:34;;;;;;;;;;;19.80;44.70;;;;;;4992545;28;20294;-52
2023/04/22 09:51:00;;;;;;;;;;;19.80;45.00;;;;;;5015613;28;19929;-52
2023/04/22 09:53:25;;;;;;;;;;;19.80;44.90;;;;;;4983804;28;19921;-52
2023/04/22 09:55:52;;;;;;;;;;;19.90;45.10;;;;;;4995546;28;19921;-52
2023/04/22 09:58:18;;;;;;;;;;;19.90;45.40;;;;;;5007124;28;19921;-52
2023/04/22 10:00:48;;;;;;;;;;;19.90;45.20;;;;;;4996402;28;19924;-52
2023/04/22 10:03:14;;;;;;;;;;;19.90;46.00;;;;;;4988914;28;19918;-51
2023/04/22 10:05:40;;;;;;;;;;;19.90;45.30;;;;;;4992148;28;19916;-52
2023/04/22 10:08:06;;;;;;;;;;;19.90;45.30;;;;;;4995689;28;19914;-52
2023/04/22 10:10:32;;;;;;;;;;;19.90;45.40;;;;;;5012540;28;19913;-52
2023/04/22 10:12:58;;;;;;;;;;;19.90;45.40;;;;;;5032386;28;19952;-52
2023/04/22 10:15:24;;;;;;;;;;;19.90;45.30;;;;;;5007213;28;19965;-52
2023/04/22 10:17:49;;;;;;;;;;;19.90;45.40;;;;;;4997252;28;19959;-52
2023/04/22 10:20:15;;;;;;;;;;;19.90;45.50;;;;;;4993052;28;19917;-52
2023/04/22 10:22:41;;;;;;;;;;;19.90;45.40;;;;;;5010230;28;19920;-52
2023/04/22 10:25:10;;;;;;;;;;;20.00;45.50;;;;;;5005942;28;19910;-52
2023/04/22 10:27:36;;;;;;;;;;;20.00;45.60;;;;;;5010433;28;19914;-52
2023/04/22 10:30:01;;;;;;;;;;;20.00;45.60;;;;;;5040243;28;19920;-52
2023/04/22 10:32:27;;;;;;;;;;;20.00;45.60;;;;;;4996998;28;19918;-52
2023/04/22 10:35:08;;;;;;;;;;;20.00;45.60;;;;;;4991515;28;20378;-52
2023/04/22 10:37:34;;;;;;;;;;;20.00;45.60;;;;;;4991807;28;20193;-52
2023/04/22 10:40:16;;;;;;;;;;;20.00;45.60;;;;;;5017164;28;20418;-52
2023/04/22 10:42:42;;;;;;;;;;;20.10;45.70;;;;;;4979194;28;19914;-52
2023/04/22 10:45:11;;;;;;;;;;;20.10;45.70;;;;;;5019557;28;20357;-52
2023/04/22 10:47:37;;;;;;;;;;;20.10;45.70;;;;;;4988353;28;19922;-52
2023/04/22 10:50:22;;;;;;;;;;;20.10;45.80;;;;;;5024849;28;20359;-52
2023/04/22 10:52:49;;;;;;;;;;;20.10;45.80;;;;;;4986654;28;19964;-52
2023/04/22 10:55:15;;;;;;;;;;;20.10;45.90;;;;;;4986317;28;19937;-52
2023/04/22 10:57:46;;;;;;;;;;;20.20;46.00;;;;;;4995701;28;20358;-51
2023/04/22 11:00:17;;;;;;;;;;;20.20;45.90;;;;;;4995250;28;19937;-52
2023/04/22 11:02:46;;;;;;;;;;;20.20;45.90;;;;;;4989763;28;20271;-52
2023/04/22 11:05:18;;;;;;;;;;;20.20;46.00;;;;;;5003310;28;20248;-52
2023/04/22 11:07:43;;;;;;;;;;;20.20;46.00;;;;;;5009843;28;20356;-52
2023/04/22 11:10:14;;;;;;;;;;;20.20;46.00;;;;;;5003351;28;19917;-52
2023/04/22 11:12:43;;;;;;;;;;;20.20;46.00;;;;;;5011814;28;19918;-52
2023/04/22 11:15:16;;;;;;;;;;;20.30;46.20;;;;;;5013782;28;20371;-52
2023/04/22 11:17:42;;;;;;;;;;;20.20;46.10;;;;;;4996999;28;19913;-52
2023/04/22 11:20:07;;;;;;;;;;;20.30;46.20;;;;;;4994622;28;20267;-52
2023/04/22 11:22:33;;;;;;;;;;;20.30;46.30;;;;;;4994715;28;19972;-52
2023/04/22 11:24:59;;;;;;;;;;;20.30;46.30;;;;;;5005752;28;19973;-52
2023/04/22 11:27:25;;;;;;;;;;;20.30;46.10;;;;;;4992421;28;21153;-52
2023/04/22 11:30:04;;;;;;;;;;;20.30;46.20;;;;;;4994641;28;19925;-52
2023/04/22 11:32:29;;;;;;;;;;;20.30;46.20;;;;;;4995319;28;20429;-51
2023/04/22 11:34:55;;;;;;;;;;;20.40;46.40;;;;;;4988232;28;19929;-50
2023/04/22 11:37:21;;;;;;;;;;;20.40;46.30;;;;;;4988663;28;19921;-51
2023/04/22 11:39:47;;;;;;;;;;;20.40;46.30;;;;;;4991644;28;19925;-51
2023/04/22 11:42:12;;;;;;;;;;;20.40;46.20;;;;;;4995006;28;19929;-51
2023/04/22 11:44:38;;;;;;;;;;;20.40;46.40;;;;;;4993803;28;19976;-51
2023/04/22 11:47:03;;;;;;;;;;;20.40;46.40;;;;;;4997917;28;19924;-52
2023/04/22 11:49:31;;;;;;;;;;;20.40;46.40;;;;;;4994666;28;19960;-52
2023/04/22 11:51:57;;;;;;;;;;;20.40;46.40;;;;;;4985660;28;20396;-51
2023/04/22 11:54:35;;;;;;;;;;;20.50;46.60;;;;;;5022025;28;20117;-51
2023/04/22 11:57:01;;;;;;;;;;;20.50;46.60;;;;;;4996804;28;19922;-51
2023/04/22 11:59:27;;;;;;;;;;;20.50;46.60;;;;;;4995847;28;19909;-52
2023/04/22 12:01:53;;;;;;;;;;;20.50;46.50;;;;;;4995334;28;19979;-52
2023/04/22 12:04:21;;;;;;;;;;;20.60;46.60;;;;;;4997425;28;20337;-53
2023/04/22 12:06:47;;;;;;;;;;;20.50;46.50;;;;;;4992825;28;20355;-53
2023/04/22 12:09:13;;;;;;;;;;;20.60;46.70;;;;;;4988744;28;20386;-53
2023/04/22 12:11:38;;;;;;;;;;;20.60;46.70;;;;;;5020551;28;19988;-53
2023/04/22 12:14:04;;;;;;;;;;;20.60;47.00;;;;;;4994238;28;19924;-53
2023/04/22 12:16:37;;;;;;;;;;;20.60;47.00;;;;;;4998854;28;20394;-53
2023/04/22 12:19:03;;;;;;;;;;;20.60;47.10;;;;;;4995071;28;20001;-53
2023/04/22 12:21:28;;;;;;;;;;;20.60;47.10;;;;;;5005918;28;20429;-53
2023/04/22 12:23:58;;;;;;;;;;;20.60;47.10;;;;;;5003031;28;19921;-53
2023/04/22 12:26:23;;;;;;;;;;;20.60;47.20;;;;;;4993228;28;19914;-53
2023/04/22 12:28:49;;;;;;;;;;;20.70;47.40;;;;;;4994120;28;19914;-54
2023/04/22 12:31:15;;;;;;;;;;;20.70;47.30;;;;;;4999866;28;19987;-53
2023/04/22 12:33:41;;;;;;;;;;;20.70;47.40;;;;;;4994171;28;19965;-54
2023/04/22 12:36:06;;;;;;;;;;;20.70;47.60;;;;;;4991482;28;20016;-54
2023/04/22 12:38:32;;;;;;;;;;;20.70;47.50;;;;;;4994327;28;19913;-55
2023/04/22 12:40:57;;;;;;;;;;;20.70;47.60;;;;;;4992870;28;19918;-53
2023/04/22 12:43:22;;;;;;;;;;;20.70;47.60;;;;;;5000380;28;19913;-53
2023/04/22 12:45:48;;;;;;;;;;;20.70;47.60;;;;;;5011618;28;20278;-53
2023/04/22 12:48:14;;;;;;;;;;;20.70;47.60;;;;;;5007002;28;19964;-53
2023/04/22 12:50:39;;;;;;;;;;;20.70;47.70;;;;;;4995702;28;20345;-53
2023/04/22 12:53:05;;;;;;;;;;;20.70;47.80;;;;;;5023190;28;20337;-54
2023/04/22 12:55:30;;;;;;;;;;;20.70;47.70;;;;;;4992384;28;19941;-53
2023/04/22 12:57:55;;;;;;;;;;;20.70;47.90;;;;;;4988026;28;19913;-53
2023/04/22 13:00:21;;;;;;;;;;;20.70;47.90;;;;;;4996229;28;20379;-53
2023/04/22 13:02:47;;;;;;;;;;;20.70;48.00;;;;;;4999033;28;20255;-53
2023/04/22 13:05:12;;;;;;;;;;;20.70;48.10;;;;;;4999657;28;19968;-53
2023/04/22 13:07:38;;;;;;;;;;;20.70;48.70;;;;;;4998599;28;20017;-53
2023/04/22 13:10:04;;;;;;;;;;;20.70;47.90;;;;;;4993758;28;19913;-53
2023/04/22 13:12:29;;;;;;;;;;;20.70;48.20;;;;;;4994283;28;19922;-54
2023/04/22 13:14:55;;;;;;;;;;;20.70;48.20;;;;;;4993833;28;20004;-53
2023/04/22 13:17:20;;;;;;;;;;;20.80;48.00;;;;;;4993847;28;19917;-53
2023/04/22 13:19:49;;;;;;;;;;;20.70;48.00;;;;;;4992594;28;19920;-53
2023/04/22 13:22:15;;;;;;;;;;;20.80;48.30;;;;;;4993516;28;19914;-53
2023/04/22 13:24:41;;;;;;;;;;;20.80;48.40;;;;;;4992532;28;19917;-53
2023/04/22 13:27:06;;;;;;;;;;;20.80;48.40;;;;;;5005041;28;19913;-53
2023/04/22 13:29:32;;;;;;;;;;;20.80;48.10;;;;;;5003955;28;19961;-53
2023/04/22 13:31:57;;;;;;;;;;;20.80;48.30;;;;;;4993535;28;20330;-53
2023/04/22 13:34:23;;;;;;;;;;;20.80;48.30;;;;;;4991924;28;19921;-53
2023/04/22 13:36:48;;;;;;;;;;;20.80;48.30;;;;;;4993245;28;19914;-53
2023/04/22 13:39:14;;;;;;;;;;;20.80;48.20;;;;;;4984497;28;20297;-53
2023/04/22 13:41:40;;;;;;;;;;;20.80;48.20;;;;;;4996700;28;20313;-53
2023/04/22 13:44:05;;;;;;;;;;;20.70;48.20;;;;;;5004033;28;19914;-53
2023/04/22 13:46:31;;;;;;;;;;;20.70;48.20;;;;;;5002320;28;19914;-53
2023/04/22 13:48:57;;;;;;;;;;;20.70;48.30;;;;;;4996088;28;20298;-53
2023/04/22 13:51:23;;;;;;;;;;;20.70;48.40;;;;;;5019264;28;20008;-53
2023/04/22 13:53:48;;;;;;;;;;;20.70;48.30;;;;;;4990785;28;20001;-53
2023/04/22 13:56:14;;;;;;;;;;;20.70;48.20;;;;;;4985130;28;19918;-53
2023/04/22 13:58:39;;;;;;;;;;;20.80;48.60;;;;;;4981198;28;19913;-53
2023/04/22 14:01:08;;;;;;;;;;;20.80;48.60;;;;;;4992116;28;20016;-54
2023/04/22 14:03:34;;;;;;;;;;;20.80;48.60;;;;;;4990779;28;19972;-54
2023/04/22 14:06:00;;;;;;;;;;;20.80;48.30;;;;;;4991958;28;19957;-53
2023/04/22 14:08:25;;;;;;;;;;;20.80;48.20;;;;;;4991769;28;19918;-53
2023/04/22 14:10:51;;;;;;;;;;;20.80;48.50;;;;;;4992790;28;19917;-53
2023/04/22 14:13:16;;;;;;;;;;;20.80;48.30;;;;;;4992499;28;19914;-53